Time;durP1;ratioP1;P1;durP2;ratioP2;P2;SDS_P1;SDS_P2;PMS_P1;PMS_P2;Temp;Humidity;BMP_temperature;BMP_pressure;BME280_temperature;BME280_humidity;BME280_pressure;Samples;Min_cycle;Max_cycle;Signal;HPM_P1;HPM_P2
2022/02/27 00:00:13;;;;;;;16.63;9.83;;;8.30;47.40;;;;;;5030917;28;20197;-47
2022/02/27 00:02:39;;;;;;;18.63;9.17;;;8.20;47.50;;;;;;5029067;28;20209;-47
2022/02/27 00:05:05;;;;;;;15.33;8.20;;;8.20;47.50;;;;;;5031272;28;20918;-49
2022/02/27 00:07:31;;;;;;;16.00;7.70;;;8.10;47.30;;;;;;5030777;28;20421;-46
2022/02/27 00:09:58;;;;;;;12.63;7.80;;;8.10;47.70;;;;;;5030703;28;20439;-44
2022/02/27 00:12:24;;;;;;;10.07;7.70;;;8.10;47.50;;;;;;5031040;28;20197;-50
2022/02/27 00:14:49;;;;;;;17.00;7.90;;;8.10;47.40;;;;;;5030437;28;20511;-45
2022/02/27 00:17:15;;;;;;;10.93;6.57;;;8.00;47.40;;;;;;5030806;28;20298;-48
2022/02/27 00:19:40;;;;;;;12.23;7.27;;;8.00;47.70;;;;;;5030314;28;20200;-49
2022/02/27 00:22:06;;;;;;;17.07;7.03;;;7.90;47.80;;;;;;5029590;28;20221;-47
2022/02/27 00:24:31;;;;;;;12.37;6.40;;;7.80;47.60;;;;;;5030294;28;20197;-48
2022/02/27 00:26:57;;;;;;;11.67;6.43;;;7.80;47.80;;;;;;5030900;28;20224;-47
2022/02/27 00:29:23;;;;;;;10.03;6.67;;;7.80;48.20;;;;;;5028475;28;20193;-50
2022/02/27 00:31:49;;;;;;;11.17;7.10;;;7.80;48.20;;;;;;5034569;28;20446;-48
2022/02/27 00:34:14;;;;;;;11.50;7.13;;;7.80;48.00;;;;;;5034374;28;20200;-47
2022/02/27 00:36:40;;;;;;;12.33;7.07;;;7.70;47.90;;;;;;5034847;28;20228;-44
2022/02/27 00:39:05;;;;;;;12.53;6.77;;;7.80;47.90;;;;;;5034167;28;20197;-46
2022/02/27 00:41:31;;;;;;;12.67;6.23;;;7.70;47.80;;;;;;5048318;28;20202;-45
2022/02/27 00:43:57;;;;;;;11.30;7.33;;;7.70;47.90;;;;;;5049250;28;20903;-48
2022/02/27 00:46:22;;;;;;;9.07;6.30;;;7.70;48.00;;;;;;5034965;28;20653;-51
2022/02/27 00:48:48;;;;;;;8.37;5.90;;;7.60;48.10;;;;;;5050378;28;20534;-45
2022/02/27 00:51:14;;;;;;;13.40;6.40;;;7.60;48.50;;;;;;5054896;28;20205;-49
2022/02/27 00:53:39;;;;;;;14.83;6.10;;;7.60;48.70;;;;;;5053962;28;20193;-45
2022/02/27 00:56:05;;;;;;;7.80;5.30;;;7.60;48.70;;;;;;5052510;28;20192;-46
2022/02/27 00:58:31;;;;;;;8.20;5.83;;;7.60;48.80;;;;;;5053229;28;20196;-46
2022/02/27 01:00:56;;;;;;;8.67;5.07;;;7.50;48.80;;;;;;5054357;28;20234;-45
2022/02/27 01:03:22;;;;;;;11.00;5.07;;;7.50;48.90;;;;;;5053472;28;20435;-45
2022/02/27 01:05:48;;;;;;;12.63;5.70;;;7.40;49.10;;;;;;5054043;28;20218;-45
2022/02/27 01:08:14;;;;;;;9.60;5.30;;;7.40;49.10;;;;;;5053296;28;20204;-50
2022/02/27 01:10:39;;;;;;;9.33;5.53;;;7.50;49.10;;;;;;5053993;28;20245;-48
2022/02/27 01:13:05;;;;;;;12.90;6.63;;;7.50;49.10;;;;;;5053050;28;20192;-50
2022/02/27 01:15:30;;;;;;;9.60;5.70;;;7.50;49.10;;;;;;5054116;28;20203;-44
2022/02/27 01:17:56;;;;;;;8.87;5.27;;;7.50;49.10;;;;;;5053004;28;20228;-47
2022/02/27 01:20:22;;;;;;;14.90;6.03;;;7.50;49.10;;;;;;5036092;28;20285;-48
2022/02/27 01:22:47;;;;;;;11.10;5.13;;;7.50;49.80;;;;;;5051581;28;20193;-47
2022/02/27 01:25:13;;;;;;;13.90;5.40;;;7.50;49.40;;;;;;5053605;28;20211;-45
2022/02/27 01:27:38;;;;;;;8.43;4.70;;;7.40;49.40;;;;;;5052646;28;20245;-46
2022/02/27 01:30:06;;;;;;;8.47;6.03;;;7.40;49.70;;;;;;5053724;28;20192;-46
2022/02/27 01:32:32;;;;;;;11.63;5.33;;;7.40;50.00;;;;;;5035861;28;20571;-47
2022/02/27 01:34:58;;;;;;;9.00;5.03;;;7.40;49.80;;;;;;5033288;28;20428;-49
2022/02/27 01:37:23;;;;;;;9.80;6.00;;;7.40;49.60;;;;;;5033292;28;20236;-46
2022/02/27 01:39:49;;;;;;;9.50;6.43;;;7.40;49.60;;;;;;5031722;28;20221;-51
2022/02/27 01:42:16;;;;;;;11.20;6.00;;;7.40;49.70;;;;;;5051955;28;20243;-45
2022/02/27 01:44:43;;;;;;;13.80;7.40;;;7.50;49.80;;;;;;5041909;28;20562;-49
2022/02/27 01:47:12;;;;;;;8.90;5.50;;;7.50;49.50;;;;;;5032922;28;20440;-44
2022/02/27 01:49:39;;;;;;;10.80;5.97;;;7.50;49.30;;;;;;5030945;28;20794;-44
2022/02/27 01:52:06;;;;;;;13.83;7.10;;;7.40;49.10;;;;;;5033404;28;20435;-47
2022/02/27 01:54:32;;;;;;;11.97;7.40;;;7.40;49.20;;;;;;5032933;28;20966;-44
2022/02/27 01:57:01;;;;;;;11.60;7.30;;;7.40;49.20;;;;;;5033293;28;20511;-47
2022/02/27 01:59:27;;;;;;;20.20;8.83;;;7.30;49.40;;;;;;5032218;28;20455;-44
2022/02/27 02:01:53;;;;;;;13.10;8.17;;;7.30;49.80;;;;;;5033299;28;20420;-48
2022/02/27 02:04:19;;;;;;;10.03;7.13;;;7.30;49.30;;;;;;5032580;28;20431;-46
2022/02/27 02:06:45;;;;;;;16.53;8.80;;;7.30;49.30;;;;;;5033383;28;20664;-45
2022/02/27 02:09:11;;;;;;;16.93;8.40;;;7.20;49.20;;;;;;5032373;28;20903;-45
2022/02/27 02:11:38;;;;;;;18.93;8.77;;;7.20;49.10;;;;;;5032818;28;20447;-46
2022/02/27 02:14:05;;;;;;;16.30;9.73;;;7.20;48.90;;;;;;5032407;28;20424;-45
2022/02/27 02:16:42;;;;;;;15.20;9.57;;;7.10;49.10;;;;;;5031374;28;21065;-47
2022/02/27 02:19:07;;;;;;;11.33;7.50;;;7.10;49.50;;;;;;5031650;28;20439;-44
2022/02/27 02:21:41;;;;;;;12.73;8.20;;;7.10;50.10;;;;;;5033040;28;20522;-48
2022/02/27 02:24:07;;;;;;;14.60;7.03;;;7.00;50.10;;;;;;5032188;28;20239;-49
2022/02/27 02:26:36;;;;;;;12.37;7.43;;;7.00;50.30;;;;;;5032696;28;20436;-47
2022/02/27 02:29:06;;;;;;;8.83;5.27;;;7.00;50.20;;;;;;5031426;28;20420;-46
2022/02/27 02:31:34;;;;;;;16.80;5.90;;;7.00;50.20;;;;;;5041961;28;20525;-46
2022/02/27 02:34:08;;;;;;;15.07;6.10;;;7.00;50.20;;;;;;5035239;28;20451;-44
2022/02/27 02:36:33;;;;;;;7.70;5.67;;;7.00;50.30;;;;;;5032540;28;20475;-45
2022/02/27 02:39:00;;;;;;;12.77;5.87;;;6.90;50.60;;;;;;5031241;28;20432;-49
2022/02/27 02:41:26;;;;;;;11.00;6.00;;;6.90;50.90;;;;;;5045261;28;20271;-46
2022/02/27 02:43:52;;;;;;;8.80;5.43;;;6.80;50.70;;;;;;5045741;28;20475;-44
2022/02/27 02:46:18;;;;;;;10.60;5.13;;;6.80;50.80;;;;;;5032124;28;20483;-47
2022/02/27 02:48:43;;;;;;;7.23;5.10;;;6.90;50.90;;;;;;5030920;28;20247;-47
2022/02/27 02:51:09;;;;;;;10.27;5.03;;;6.80;50.50;;;;;;5031988;28;20555;-50
2022/02/27 02:53:36;;;;;;;6.60;4.97;;;6.80;50.50;;;;;;5031292;28;20198;-44
2022/02/27 02:56:05;;;;;;;10.20;5.83;;;6.80;50.40;;;;;;5032061;28;20197;-49
2022/02/27 02:58:35;;;;;;;7.10;4.30;;;6.80;50.50;;;;;;5030761;28;20431;-50
2022/02/27 03:01:01;;;;;;;7.87;4.97;;;6.90;50.20;;;;;;5031869;28;20432;-47
2022/02/27 03:03:27;;;;;;;8.53;4.33;;;6.80;50.10;;;;;;5031101;28;20933;-44
2022/02/27 03:05:53;;;;;;;7.40;5.10;;;6.80;50.20;;;;;;5031470;28;20424;-50
2022/02/27 03:08:18;;;;;;;9.57;5.97;;;6.80;50.40;;;;;;5030586;28;20224;-48
2022/02/27 03:10:44;;;;;;;10.60;6.27;;;6.80;50.50;;;;;;5029869;28;20537;-45
2022/02/27 03:13:09;;;;;;;11.73;5.40;;;6.80;50.40;;;;;;5031189;28;20712;-44
2022/02/27 03:15:35;;;;;;;10.17;4.77;;;6.70;50.40;;;;;;5031722;28;20280;-45
2022/02/27 03:18:01;;;;;;;11.13;5.43;;;6.70;50.50;;;;;;5030883;28;20689;-47
2022/02/27 03:20:26;;;;;;;8.83;4.73;;;6.70;50.60;;;;;;5032076;28;20663;-44
2022/02/27 03:22:52;;;;;;;8.80;5.60;;;6.80;50.60;;;;;;5031289;28;20193;-45
2022/02/27 03:25:18;;;;;;;9.10;4.80;;;6.70;50.50;;;;;;5031792;28;20595;-44
2022/02/27 03:27:43;;;;;;;9.27;5.13;;;6.70;50.60;;;;;;5030820;28;20284;-48
2022/02/27 03:30:09;;;;;;;10.50;5.60;;;6.60;50.50;;;;;;5031742;28;20189;-46
2022/02/27 03:32:35;;;;;;;7.30;4.40;;;6.50;51.00;;;;;;5044560;28;20285;-46
2022/02/27 03:35:00;;;;;;;5.57;4.20;;;6.40;50.90;;;;;;5031103;28;20429;-44
2022/02/27 03:37:26;;;;;;;8.50;4.53;;;6.50;50.60;;;;;;5029531;28;20308;-47
2022/02/27 03:39:52;;;;;;;8.77;4.60;;;6.50;50.40;;;;;;5031253;28;20649;-45
2022/02/27 03:42:19;;;;;;;10.23;4.30;;;6.50;50.40;;;;;;5049340;28;20236;-46
2022/02/27 03:44:45;;;;;;;7.90;4.30;;;6.50;51.10;;;;;;5039181;28;20205;-44
2022/02/27 03:47:10;;;;;;;10.20;4.90;;;6.60;50.60;;;;;;5030970;28;20427;-44
2022/02/27 03:49:36;;;;;;;7.70;4.50;;;6.60;50.50;;;;;;5030801;28;20799;-44
2022/02/27 03:52:03;;;;;;;12.57;3.60;;;6.50;50.60;;;;;;5013567;28;20250;-49
2022/02/27 03:54:29;;;;;;;7.23;4.10;;;6.50;51.20;;;;;;5030581;28;20193;-43
2022/02/27 03:56:55;;;;;;;6.20;4.20;;;6.30;52.20;;;;;;5031033;28;20480;-47
2022/02/27 03:59:20;;;;;;;10.53;4.40;;;6.20;52.30;;;;;;5030880;28;20912;-49
2022/02/27 04:01:46;;;;;;;8.03;3.37;;;6.30;52.10;;;;;;5031094;28;20276;-49
2022/02/27 04:04:11;;;;;;;9.00;3.87;;;6.00;52.90;;;;;;5029604;28;20189;-44
2022/02/27 04:06:37;;;;;;;12.60;4.20;;;6.10;53.30;;;;;;5030188;28;20194;-47
2022/02/27 04:09:03;;;;;;;5.73;3.67;;;6.20;52.80;;;;;;5030130;28;20232;-44
2022/02/27 04:11:28;;;;;;;7.27;2.80;;;6.30;52.40;;;;;;5031031;28;20296;-48
2022/02/27 04:13:54;;;;;;;7.03;3.90;;;6.40;52.20;;;;;;5030577;28;20211;-44
2022/02/27 04:16:20;;;;;;;9.17;4.10;;;6.40;51.80;;;;;;5030735;28;20197;-44
2022/02/27 04:18:45;;;;;;;10.20;4.40;;;6.40;51.60;;;;;;5030223;28;20193;-45
2022/02/27 04:21:11;;;;;;;5.60;2.93;;;6.50;51.60;;;;;;5030866;28;20204;-46
2022/02/27 04:23:37;;;;;;;7.40;3.80;;;6.50;51.50;;;;;;5030283;28;20189;-46
2022/02/27 04:26:03;;;;;;;7.37;3.93;;;6.50;51.40;;;;;;5030649;28;21079;-46
2022/02/27 04:28:29;;;;;;;6.03;3.37;;;6.40;51.30;;;;;;5029841;28;20193;-46
2022/02/27 04:30:54;;;;;;;7.50;3.83;;;6.40;51.40;;;;;;5032036;28;20215;-46
2022/02/27 04:33:20;;;;;;;9.43;3.70;;;6.50;51.60;;;;;;5029005;28;20467;-46
2022/02/27 04:35:46;;;;;;;9.90;3.50;;;6.50;51.40;;;;;;5030731;28;20220;-45
2022/02/27 04:38:11;;;;;;;7.10;3.90;;;6.50;51.30;;;;;;5029974;28;20221;-45
2022/02/27 04:40:37;;;;;;;4.27;3.20;;;6.50;51.20;;;;;;5036672;28;20193;-45
2022/02/27 04:43:02;;;;;;;7.40;3.43;;;6.50;51.60;;;;;;5049682;28;20708;-45
2022/02/27 04:45:29;;;;;;;7.50;3.70;;;6.50;51.20;;;;;;5033240;28;20193;-45
2022/02/27 04:47:54;;;;;;;12.00;4.70;;;6.50;51.20;;;;;;5029869;28;20466;-44
2022/02/27 04:50:20;;;;;;;6.63;3.50;;;6.50;51.20;;;;;;5030524;28;20455;-49
2022/02/27 04:52:46;;;;;;;6.77;4.13;;;6.40;51.10;;;;;;5030307;28;20620;-44
2022/02/27 04:55:12;;;;;;;5.70;4.03;;;6.50;51.30;;;;;;5030656;28;20932;-49
2022/02/27 04:57:37;;;;;;;7.37;4.00;;;6.30;51.20;;;;;;5029719;28;20476;-44
2022/02/27 05:00:07;;;;;;;5.67;3.80;;;6.30;51.30;;;;;;5028960;28;20194;-46
2022/02/27 05:02:34;;;;;;;9.20;4.33;;;6.30;51.50;;;;;;5030491;28;20279;-49
2022/02/27 05:04:59;;;;;;;7.97;3.70;;;6.30;51.60;;;;;;5029956;28;20535;-46
2022/02/27 05:07:25;;;;;;;5.40;3.43;;;6.40;51.70;;;;;;5030292;28;20522;-45
2022/02/27 05:09:51;;;;;;;6.53;3.83;;;6.40;51.40;;;;;;5029649;28;20220;-45
2022/02/27 05:12:16;;;;;;;8.43;4.40;;;6.40;51.60;;;;;;5030345;28;20205;-46
2022/02/27 05:14:42;;;;;;;7.60;3.97;;;6.40;51.50;;;;;;5029683;28;20194;-46
2022/02/27 05:17:08;;;;;;;6.80;3.67;;;6.40;51.30;;;;;;5030475;28;20305;-47
2022/02/27 05:19:33;;;;;;;8.23;4.10;;;6.20;51.90;;;;;;5033657;28;20217;-45
2022/02/27 05:21:59;;;;;;;5.47;3.50;;;6.10;51.90;;;;;;5034026;28;20647;-45
2022/02/27 05:24:25;;;;;;;11.00;4.17;;;6.20;51.90;;;;;;5033647;28;20197;-45
2022/02/27 05:26:50;;;;;;;10.33;4.20;;;6.20;51.80;;;;;;5032041;28;20319;-45
2022/02/27 05:29:16;;;;;;;9.67;4.43;;;6.30;51.70;;;;;;5033499;28;20196;-47
2022/02/27 05:31:42;;;;;;;9.47;4.10;;;6.20;51.70;;;;;;5025251;28;20185;-45
2022/02/27 05:34:09;;;;;;;9.10;4.53;;;6.20;51.80;;;;;;5033286;28;20201;-45
2022/02/27 05:36:34;;;;;;;11.70;4.67;;;6.20;51.80;;;;;;5033802;28;20439;-48
2022/02/27 05:39:01;;;;;;;8.33;4.40;;;6.20;51.90;;;;;;5032766;28;20793;-44
2022/02/27 05:41:26;;;;;;;9.67;3.90;;;6.20;52.00;;;;;;5046456;28;20185;-45
2022/02/27 05:43:53;;;;;;;7.97;3.60;;;6.20;52.10;;;;;;5048353;28;20490;-49
2022/02/27 05:46:18;;;;;;;6.43;4.47;;;6.20;52.10;;;;;;5033488;28;20255;-43
2022/02/27 05:48:44;;;;;;;11.07;5.07;;;6.10;51.90;;;;;;5032481;28;20458;-47
2022/02/27 05:51:10;;;;;;;7.97;4.87;;;6.20;51.90;;;;;;5033294;28;20231;-48
2022/02/27 05:53:35;;;;;;;5.53;4.40;;;6.10;51.50;;;;;;5031090;28;20196;-50
2022/02/27 05:56:01;;;;;;;7.10;3.50;;;6.10;51.40;;;;;;5033276;28;20308;-46
2022/02/27 05:58:27;;;;;;;8.63;3.93;;;6.10;51.60;;;;;;5031861;28;20318;-46
2022/02/27 06:00:53;;;;;;;16.60;7.40;;;6.10;51.60;;;;;;5033427;28;20439;-46
2022/02/27 06:03:19;;;;;;;11.07;7.00;;;6.10;51.70;;;;;;5032672;28;20220;-47
2022/02/27 06:05:46;;;;;;;18.53;10.77;;;6.00;51.90;;;;;;5033115;28;20424;-43
2022/02/27 06:08:12;;;;;;;9.73;7.23;;;6.00;51.70;;;;;;5032119;28;20435;-47
2022/02/27 06:10:38;;;;;;;13.50;9.70;;;6.00;51.70;;;;;;5032594;28;20428;-44
2022/02/27 06:13:04;;;;;;;15.87;12.20;;;6.00;51.80;;;;;;5032527;28;20515;-44
2022/02/27 06:15:29;;;;;;;9.53;7.00;;;6.00;51.70;;;;;;5032985;28;20645;-46
2022/02/27 06:17:55;;;;;;;6.50;4.27;;;6.00;51.60;;;;;;5031883;28;20221;-44
2022/02/27 06:20:21;;;;;;;13.10;6.10;;;6.00;51.80;;;;;;5031200;28;20225;-44
2022/02/27 06:22:48;;;;;;;10.30;5.80;;;6.00;51.90;;;;;;5032131;28;20201;-44
2022/02/27 06:25:16;;;;;;;6.43;5.67;;;6.00;51.90;;;;;;5032835;28;20432;-43
2022/02/27 06:27:42;;;;;;;8.13;5.53;;;5.90;51.80;;;;;;5031610;28;20428;-43
2022/02/27 06:30:10;;;;;;;9.30;4.90;;;5.90;52.00;;;;;;5032281;28;20439;-45
2022/02/27 06:32:37;;;;;;;8.00;4.53;;;5.90;51.50;;;;;;5032400;28;20989;-44
2022/02/27 06:35:04;;;;;;;8.13;4.87;;;5.90;51.20;;;;;;5032584;28;20435;-46
2022/02/27 06:37:31;;;;;;;7.93;4.33;;;5.90;51.10;;;;;;5031746;28;20487;-43
2022/02/27 06:39:56;;;;;;;10.00;4.70;;;5.90;51.20;;;;;;5032395;28;20478;-48
2022/02/27 06:42:22;;;;;;;8.80;5.50;;;5.90;51.60;;;;;;5052046;28;20467;-44
2022/02/27 06:44:47;;;;;;;7.80;4.97;;;6.00;51.90;;;;;;5039824;28;20194;-43
2022/02/27 06:47:13;;;;;;;9.93;5.80;;;6.00;52.10;;;;;;5030085;28;20236;-45
2022/02/27 06:49:39;;;;;;;7.50;5.57;;;6.00;52.00;;;;;;5031561;28;20247;-43
2022/02/27 06:52:04;;;;;;;7.10;4.80;;;6.10;52.10;;;;;;5031953;28;20564;-50
2022/02/27 06:54:30;;;;;;;8.67;4.53;;;6.20;52.20;;;;;;5031771;28;20243;-46
2022/02/27 06:56:55;;;;;;;8.50;5.37;;;6.40;52.20;;;;;;5031830;28;20225;-45
2022/02/27 06:59:21;;;;;;;9.93;4.53;;;6.50;52.10;;;;;;5031578;28;20200;-48
2022/02/27 07:01:46;;;;;;;5.77;4.13;;;6.70;52.00;;;;;;5031880;28;20212;-45
2022/02/27 07:04:12;;;;;;;8.60;4.97;;;6.90;51.90;;;;;;5031255;28;20283;-50
2022/02/27 07:06:38;;;;;;;15.07;5.03;;;7.10;51.80;;;;;;5031494;28;20189;-46
2022/02/27 07:09:04;;;;;;;7.80;4.30;;;7.30;51.50;;;;;;5030029;28;20197;-45
2022/02/27 07:11:30;;;;;;;11.70;4.27;;;7.50;51.20;;;;;;5031469;28;20431;-45
2022/02/27 07:13:55;;;;;;;8.63;4.80;;;7.70;50.80;;;;;;5029784;28;20204;-49
2022/02/27 07:16:24;;;;;;;9.73;4.90;;;7.90;50.40;;;;;;5031681;28;20201;-44
2022/02/27 07:18:50;;;;;;;12.50;6.60;;;7.90;50.50;;;;;;5030638;28;20554;-46
2022/02/27 07:21:16;;;;;;;9.03;6.47;;;8.10;50.20;;;;;;5031235;28;20531;-44
2022/02/27 07:23:42;;;;;;;13.07;6.10;;;8.10;50.00;;;;;;5031006;28;20432;-44
2022/02/27 07:26:08;;;;;;;8.37;6.63;;;8.00;49.70;;;;;;5031601;28;20954;-50
2022/02/27 07:28:33;;;;;;;10.37;6.17;;;8.20;49.70;;;;;;5030363;28;20766;-43
2022/02/27 07:30:59;;;;;;;8.60;5.23;;;8.50;49.20;;;;;;5031579;28;20702;-44
2022/02/27 07:33:25;;;;;;;13.07;4.87;;;8.60;48.90;;;;;;5030867;28;20610;-47
2022/02/27 07:35:51;;;;;;;9.07;5.23;;;8.90;48.70;;;;;;5031179;28;20224;-49
2022/02/27 07:38:17;;;;;;;8.47;5.20;;;9.10;48.20;;;;;;5030240;28;20311;-44
2022/02/27 07:40:42;;;;;;;7.27;5.07;;;9.30;48.00;;;;;;5034936;28;21006;-45
2022/02/27 07:43:08;;;;;;;6.87;5.00;;;9.50;47.70;;;;;;5050480;28;20251;-44
2022/02/27 07:45:34;;;;;;;11.93;5.33;;;9.60;47.20;;;;;;5032931;28;20271;-48
2022/02/27 07:47:59;;;;;;;8.33;5.17;;;9.70;47.00;;;;;;5030242;28;20640;-44
2022/02/27 07:50:26;;;;;;;9.23;5.30;;;9.80;46.40;;;;;;5030602;28;20217;-45
2022/02/27 07:52:52;;;;;;;8.30;5.60;;;9.40;46.60;;;;;;5045865;28;20494;-45
2022/02/27 07:55:19;;;;;;;6.53;4.33;;;9.20;47.40;;;;;;5030865;28;20201;-45
2022/02/27 07:57:45;;;;;;;9.47;5.67;;;9.30;47.80;;;;;;5029870;28;20228;-44
2022/02/27 08:00:12;;;;;;;9.63;5.40;;;9.50;47.70;;;;;;5030772;28;20828;-45
2022/02/27 08:02:37;;;;;;;9.53;5.53;;;9.60;47.50;;;;;;5030372;28;20490;-46
2022/02/27 08:05:03;;;;;;;9.00;6.30;;;9.90;47.30;;;;;;5030948;28;20436;-44
2022/02/27 08:07:29;;;;;;;9.90;7.70;;;9.80;47.60;;;;;;5029913;28;20199;-47
2022/02/27 08:09:54;;;;;;;8.97;6.50;;;9.80;48.00;;;;;;5029024;28;20432;-50
2022/02/27 08:12:20;;;;;;;15.33;6.87;;;9.90;47.90;;;;;;5030973;28;20212;-44
2022/02/27 08:14:47;;;;;;;9.43;6.17;;;9.70;48.60;;;;;;5030110;28;20197;-44
2022/02/27 08:17:13;;;;;;;8.43;5.50;;;9.80;49.00;;;;;;5030005;28;20297;-50
2022/02/27 08:19:39;;;;;;;8.13;5.77;;;9.40;49.10;;;;;;5029908;28;20512;-46
2022/02/27 08:22:05;;;;;;;6.50;4.67;;;8.70;50.40;;;;;;5030561;28;20412;-48
2022/02/27 08:24:30;;;;;;;10.10;5.80;;;8.50;51.90;;;;;;5029882;28;20436;-50
2022/02/27 08:26:56;;;;;;;6.70;4.87;;;8.60;51.80;;;;;;5030508;28;20275;-45
2022/02/27 08:29:22;;;;;;;6.60;5.60;;;8.70;51.80;;;;;;5030021;28;20603;-47
2022/02/27 08:31:47;;;;;;;10.23;5.43;;;8.70;51.60;;;;;;5031406;28;20197;-44
2022/02/27 08:34:13;;;;;;;7.40;5.60;;;8.40;51.80;;;;;;5030300;28;20562;-45
2022/02/27 08:36:40;;;;;;;8.03;5.73;;;8.30;52.20;;;;;;5029032;28;20221;-44
2022/02/27 08:39:06;;;;;;;8.30;5.20;;;8.10;52.30;;;;;;5030208;28;20886;-44
2022/02/27 08:41:31;;;;;;;10.77;5.73;;;8.00;52.80;;;;;;5043896;28;20883;-47
2022/02/27 08:43:57;;;;;;;8.03;5.33;;;8.00;52.90;;;;;;5045270;28;20521;-47
2022/02/27 08:46:23;;;;;;;8.43;4.93;;;7.90;53.00;;;;;;5030472;28;20665;-47
2022/02/27 08:48:48;;;;;;;7.83;5.13;;;8.10;53.20;;;;;;5030167;28;20729;-46
2022/02/27 08:51:15;;;;;;;8.53;5.20;;;8.10;52.40;;;;;;5031843;28;20207;-45
2022/02/27 08:53:40;;;;;;;7.70;4.97;;;8.20;52.60;;;;;;5034170;28;20185;-43
2022/02/27 08:56:06;;;;;;;12.63;5.00;;;8.10;52.40;;;;;;5034433;28;20416;-44
2022/02/27 08:58:31;;;;;;;10.63;6.40;;;8.10;52.40;;;;;;5033641;28;20225;-46
2022/02/27 09:00:57;;;;;;;8.10;4.33;;;8.50;52.00;;;;;;5034462;28;20546;-48
2022/02/27 09:03:26;;;;;;;6.10;5.03;;;8.60;51.50;;;;;;5032433;28;20204;-44
2022/02/27 09:05:52;;;;;;;10.10;5.43;;;8.30;51.20;;;;;;5034458;28;20193;-44
2022/02/27 09:08:18;;;;;;;6.67;5.30;;;8.60;51.20;;;;;;5033518;28;20477;-45
2022/02/27 09:10:44;;;;;;;6.77;5.30;;;8.80;51.10;;;;;;5034442;28;20862;-44
2022/02/27 09:13:10;;;;;;;9.40;5.33;;;8.80;50.00;;;;;;5033868;28;20458;-43
2022/02/27 09:15:36;;;;;;;8.53;5.70;;;9.10;50.00;;;;;;5034432;28;20440;-44
2022/02/27 09:18:02;;;;;;;9.80;4.50;;;9.10;49.30;;;;;;5033060;28;20258;-45
2022/02/27 09:20:28;;;;;;;6.03;4.43;;;8.80;49.60;;;;;;5034150;28;20289;-44
2022/02/27 09:22:54;;;;;;;5.83;4.60;;;9.00;50.10;;;;;;5033483;28;20906;-45
2022/02/27 09:25:20;;;;;;;6.80;4.50;;;9.20;49.40;;;;;;5034291;28;20456;-47
2022/02/27 09:27:46;;;;;;;7.70;4.63;;;9.20;48.60;;;;;;5033011;28;20201;-44
2022/02/27 09:30:12;;;;;;;9.70;5.53;;;9.30;48.70;;;;;;5032199;28;20522;-44
2022/02/27 09:32:39;;;;;;;7.10;5.40;;;9.70;48.10;;;;;;5046181;28;20197;-44
2022/02/27 09:35:06;;;;;;;6.80;4.43;;;9.40;47.50;;;;;;5033807;28;20424;-44
2022/02/27 09:37:34;;;;;;;5.47;4.40;;;9.30;47.60;;;;;;5033084;28;21057;-44
2022/02/27 09:40:02;;;;;;;4.63;3.77;;;9.30;48.00;;;;;;5034386;28;20921;-45
2022/02/27 09:42:29;;;;;;;12.10;4.60;;;9.40;46.80;;;;;;5049698;28;20512;-47
2022/02/27 09:44:56;;;;;;;6.23;3.87;;;9.70;46.00;;;;;;5040128;28;20501;-48
2022/02/27 09:47:22;;;;;;;4.57;3.70;;;10.00;44.70;;;;;;5033196;28;20957;-49
2022/02/27 09:49:48;;;;;;;4.90;4.13;;;10.50;44.60;;;;;;5032899;28;20420;-47
2022/02/27 09:52:15;;;;;;;4.93;3.90;;;10.70;43.10;;;;;;5033283;28;20787;-46
2022/02/27 09:54:41;;;;;;;4.93;4.20;;;10.80;42.30;;;;;;5032843;28;20200;-46
2022/02/27 09:57:06;;;;;;;5.83;3.70;;;10.40;41.60;;;;;;5031313;28;20467;-46
2022/02/27 09:59:32;;;;;;;5.53;3.30;;;10.40;41.80;;;;;;5032644;28;20420;-49
2022/02/27 10:02:00;;;;;;;5.77;3.90;;;10.30;41.40;;;;;;5033094;28;20189;-46
2022/02/27 10:04:30;;;;;;;5.40;3.70;;;10.40;41.70;;;;;;5032196;28;20193;-46
2022/02/27 10:06:56;;;;;;;4.90;3.63;;;10.40;42.00;;;;;;5032986;28;20428;-48
2022/02/27 10:09:23;;;;;;;6.10;3.83;;;10.70;41.70;;;;;;5032753;28;20427;-45
2022/02/27 10:11:50;;;;;;;4.30;3.53;;;10.70;41.10;;;;;;5033140;28;20198;-45
2022/02/27 10:14:27;;;;;;;4.63;3.27;;;10.80;41.20;;;;;;5032399;28;20772;-46
2022/02/27 10:17:02;;;;;;;6.00;3.47;;;10.80;40.30;;;;;;5032711;28;20479;-45
2022/02/27 10:19:28;;;;;;;7.57;3.67;;;10.60;40.50;;;;;;5032152;28;20481;-46
2022/02/27 10:21:53;;;;;;;3.50;3.00;;;10.50;40.30;;;;;;5033376;28;20474;-46
2022/02/27 10:24:19;;;;;;;6.23;3.50;;;10.30;40.00;;;;;;5030770;28;20700;-46
2022/02/27 10:26:49;;;;;;;3.03;2.83;;;10.10;40.50;;;;;;5032169;28;20201;-46
2022/02/27 10:29:23;;;;;;;4.63;3.27;;;10.00;40.50;;;;;;5031864;28;20204;-45
2022/02/27 10:31:51;;;;;;;4.20;3.10;;;9.70;40.50;;;;;;5033026;28;20522;-45
2022/02/27 10:34:22;;;;;;;4.40;2.90;;;9.70;40.90;;;;;;5032254;28;20416;-47
2022/02/27 10:36:53;;;;;;;4.73;3.03;;;9.50;40.50;;;;;;5032079;28;20492;-44
2022/02/27 10:39:31;;;;;;;3.73;2.50;;;9.50;41.00;;;;;;5031605;28;20515;-48
2022/02/27 10:42:16;;;;;;;5.00;2.83;;;9.70;40.90;;;;;;5048707;28;20906;-44
2022/02/27 10:44:53;;;;;;;4.23;3.47;;;10.00;39.40;;;;;;5040751;28;20428;-45
2022/02/27 10:47:29;;;;;;;7.30;3.20;;;10.30;39.10;;;;;;5032000;28;20499;-46
2022/02/27 10:49:58;;;;;;;7.17;2.70;;;10.60;37.90;;;;;;5031736;28;20473;-49
2022/02/27 10:52:26;;;;;;;3.60;2.83;;;10.70;36.80;;;;;;5031261;28;20425;-44
2022/02/27 10:54:55;;;;;;;4.23;2.70;;;10.50;37.30;;;;;;5031759;28;20431;-48
2022/02/27 10:57:29;;;;;;;3.93;2.93;;;10.60;36.90;;;;;;5031694;28;20533;-44
2022/02/27 10:59:56;;;;;;;4.97;3.30;;;10.70;36.20;;;;;;5031199;28;20431;-45
2022/02/27 11:02:24;;;;;;;3.43;2.40;;;10.90;36.20;;;;;;5032187;28;20428;-45
2022/02/27 11:04:51;;;;;;;4.23;3.20;;;10.90;35.80;;;;;;5031577;28;20527;-44
2022/02/27 11:07:16;;;;;;;5.40;3.77;;;10.90;36.30;;;;;;5031585;28;20970;-44
2022/02/27 11:09:44;;;;;;;3.73;2.83;;;11.20;36.50;;;;;;5031470;28;20514;-46
2022/02/27 11:12:11;;;;;;;4.03;3.03;;;11.20;35.10;;;;;;5031788;28;20193;-46
2022/02/27 11:14:37;;;;;;;3.43;2.67;;;11.40;35.30;;;;;;5030236;28;20440;-47
2022/02/27 11:17:04;;;;;;;4.07;3.13;;;11.40;34.30;;;;;;5031338;28;20484;-46
2022/02/27 11:19:30;;;;;;;3.20;2.70;;;10.90;34.20;;;;;;5029704;28;20518;-44
2022/02/27 11:21:57;;;;;;;3.70;3.00;;;11.10;34.90;;;;;;5031878;28;20904;-48
2022/02/27 11:24:24;;;;;;;3.90;2.77;;;11.30;33.20;;;;;;5031307;28;20428;-45
2022/02/27 11:26:50;;;;;;;7.77;3.50;;;11.60;33.70;;;;;;5029709;28;20479;-45
2022/02/27 11:29:16;;;;;;;3.90;2.97;;;11.80;34.10;;;;;;5031097;28;20463;-48
2022/02/27 11:31:42;;;;;;;5.70;3.30;;;11.90;33.70;;;;;;5042407;28;20197;-45
2022/02/27 11:34:15;;;;;;;4.43;3.37;;;12.10;33.80;;;;;;5033034;28;20189;-46
2022/02/27 11:36:45;;;;;;;3.73;2.70;;;12.20;33.90;;;;;;5031004;28;20432;-45
2022/02/27 11:41:57;;;;;;;3.20;2.60;;;11.90;33.80;;;;;;5047650;28;20954;-44
2022/02/27 11:44:38;;;;;;;3.33;2.40;;;11.70;34.00;;;;;;5041901;28;20447;-44
2022/02/27 11:47:03;;;;;;;4.00;2.90;;;11.80;34.00;;;;;;5030918;28;20434;-46
2022/02/27 11:49:29;;;;;;;5.63;3.67;;;11.80;33.80;;;;;;5030504;28;20428;-46
2022/02/27 11:52:07;;;;;;;6.70;4.20;;;11.60;33.30;;;;;;5031312;28;20197;-45
2022/02/27 11:54:40;;;;;;;4.13;3.00;;;12.00;33.50;;;;;;5030563;28;20220;-46
2022/02/27 11:57:13;;;;;;;3.47;2.70;;;12.10;32.80;;;;;;5030443;28;20487;-46
2022/02/27 11:59:56;;;;;;;5.20;3.50;;;11.90;32.90;;;;;;5030189;28;20446;-47
2022/02/27 12:02:35;;;;;;;3.73;3.30;;;12.40;33.00;;;;;;5031162;28;20805;-47
2022/02/27 12:05:04;;;;;;;4.83;3.33;;;12.70;33.00;;;;;;5030459;28;20447;-44
2022/02/27 12:08:02;;;;;;;3.33;3.03;;;12.60;32.20;;;;;;5030465;28;20420;-45
2022/02/27 12:10:57;;;;;;;4.10;3.60;;;12.50;32.60;;;;;;5030715;28;20792;-47
2022/02/27 12:13:28;;;;;;;4.90;3.60;;;12.60;32.50;;;;;;5011767;28;20455;-47
2022/02/27 12:16:13;;;;;;;4.33;3.23;;;12.10;33.30;;;;;;5030975;28;20491;-47
2022/02/27 12:18:53;;;;;;;3.70;3.40;;;12.20;33.80;;;;;;5030145;28;21001;-45
2022/02/27 12:21:39;;;;;;;4.90;3.40;;;12.80;33.70;;;;;;5030617;28;20454;-44
2022/02/27 12:24:07;;;;;;;4.60;3.57;;;12.40;32.70;;;;;;5030246;28;20440;-44
2022/02/27 12:26:33;;;;;;;4.10;2.93;;;12.50;33.20;;;;;;5030013;28;20452;-45
2022/02/27 12:28:59;;;;;;;3.87;3.47;;;12.20;32.00;;;;;;5030050;28;20459;-46
2022/02/27 12:31:27;;;;;;;4.60;3.20;;;12.50;32.80;;;;;;5031031;28;20200;-45
2022/02/27 12:33:54;;;;;;;5.90;3.57;;;12.40;32.30;;;;;;5030129;28;20803;-44
2022/02/27 12:36:37;;;;;;;4.03;2.70;;;12.60;33.40;;;;;;5029925;28;20450;-46
2022/02/27 12:39:09;;;;;;;3.43;2.80;;;13.10;33.40;;;;;;5028179;28;20494;-44
2022/02/27 12:41:36;;;;;;;4.43;2.93;;;13.50;32.10;;;;;;5044369;28;21002;-45
2022/02/27 12:44:04;;;;;;;4.37;3.40;;;13.80;31.60;;;;;;5043908;28;20837;-46
2022/02/27 12:46:30;;;;;;;3.33;3.00;;;13.80;31.70;;;;;;5030097;28;20436;-49
2022/02/27 12:51:40;;;;;;;4.00;2.90;;;14.30;30.90;;;;;;5030422;28;20199;-44
2022/02/27 12:54:13;;;;;;;4.90;3.40;;;14.50;30.40;;;;;;5030286;28;20424;-45
2022/02/27 12:56:40;;;;;;;4.40;3.37;;;14.50;29.90;;;;;;5030087;28;20436;-45